Time;durP1;ratioP1;P1;durP2;ratioP2;P2;SDS_P1;SDS_P2;PMS_P1;PMS_P2;Temp;Humidity;BMP_temperature;BMP_pressure;BME280_temperature;BME280_humidity;BME280_pressure;Samples;Min_cycle;Max_cycle;Signal;HPM_P1;HPM_P2
2021/12/09 03:43:09;;;;;;;;;27.00;24.00;;;;;4.17;49.63;97898.56;6911747;22;1353951;-67
2021/12/09 03:46:13;;;;;;;;;27.40;23.00;;;;;4.13;49.35;97894.69;6179706;28;99693;-67
2021/12/09 03:49:17;;;;;;;;;27.25;23.00;;;;;4.03;49.38;97894.25;6174546;28;97277;-67
2021/12/09 03:52:20;;;;;;;;;28.60;25.00;;;;;3.98;49.44;97874.56;6165606;28;98649;-67
2021/12/09 03:55:24;;;;;;;;;25.80;23.20;;;;;4.06;49.54;97893.84;6184368;28;99952;-68
2021/12/09 03:58:28;;;;;;;;;28.50;25.25;;;;;4.07;49.62;97910.66;6179982;28;97340;-68
2021/12/09 04:01:32;;;;;;;;;28.40;26.00;;;;;4.06;49.77;97909.00;6172677;28;97845;-66
2021/12/09 04:04:36;;;;;;;;;31.00;26.00;;;;;3.99;49.97;97908.22;6172994;28;97223;-67
2021/12/09 04:07:39;;;;;;;;;29.75;27.00;;;;;4.05;50.04;97902.88;6178546;28;98408;-68
2021/12/09 04:10:43;;;;;;;;;29.75;25.75;;;;;3.98;50.03;97911.88;6184496;28;96701;-67
2021/12/09 04:13:48;;;;;;;;;27.40;24.60;;;;;4.05;49.92;97904.72;6165117;28;97158;-66
2021/12/09 04:16:52;;;;;;;;;27.40;23.40;;;;;4.11;50.00;97907.38;6184980;28;97399;-66
2021/12/09 04:19:56;;;;;;;;;25.20;23.20;;;;;4.06;50.24;97912.50;6169928;28;97164;-66
2021/12/09 04:23:01;;;;;;;;;29.00;25.00;;;;;4.03;49.96;97909.44;6155696;28;97820;-66
2021/12/09 04:26:05;;;;;;;;;32.00;25.75;;;;;4.02;50.31;97913.94;6170661;28;98143;-67
2021/12/09 04:29:11;;;;;;;;;28.60;25.60;;;;;4.07;50.16;97913.34;6188341;28;96989;-67
2021/12/09 04:32:15;;;;;;;;;32.00;26.00;;;;;3.97;50.22;97907.56;6176640;28;96874;-67
2021/12/09 04:35:18;;;;;;;;;31.00;27.40;;;;;4.04;50.26;97895.91;6184707;28;96775;-67
2021/12/09 04:38:21;;;;;;;;;28.33;26.33;;;;;4.13;50.42;97899.19;6185852;28;96856;-68
2021/12/09 04:41:25;;;;;;;;;32.75;27.25;;;;;4.13;50.21;97894.69;6182795;28;96743;-67
2021/12/09 04:44:29;;;;;;;;;33.00;28.00;;;;;4.20;49.89;97906.16;6181132;28;96369;-67
2021/12/09 04:47:33;;;;;;;;;32.00;26.25;;;;;4.17;49.96;97909.25;6186674;28;97033;-67
2021/12/09 04:50:38;;;;;;;;;31.40;27.40;;;;;4.14;50.19;97914.16;6168857;28;97415;-66
2021/12/09 04:53:44;;;;;;;;;30.50;27.50;;;;;4.24;50.16;97907.41;6177042;28;96648;-66
2021/12/09 04:56:47;;;;;;;;;32.40;28.00;;;;;4.32;50.05;97888.50;6186474;28;97372;-65
2021/12/09 04:59:53;;;;;;;;;34.20;27.20;;;;;4.26;49.97;97888.50;6168931;28;98852;-66
2021/12/09 05:03:06;;;;;;;;;33.75;30.00;;;;;4.40;49.92;97884.00;6172543;28;97877;-66
2021/12/09 05:06:10;;;;;;;;;36.00;29.25;;;;;4.40;49.77;97884.00;6181746;28;98498;-65
2021/12/09 05:09:17;;;;;;;;;34.00;30.00;;;;;4.35;49.64;97879.25;6165307;28;97072;-67
2021/12/09 05:12:21;;;;;;;;;39.60;30.80;;;;;4.38;49.72;97868.19;6172604;28;98279;-66
2021/12/09 05:15:26;;;;;;;;;43.40;32.00;;;;;4.43;49.95;97857.72;6167932;28;96595;-67
2021/12/09 05:18:33;;;;;;;;;35.40;29.60;;;;;4.49;49.79;97864.91;6184514;28;97223;-65
2021/12/09 05:21:39;;;;;;;;;36.40;30.40;;;;;4.50;49.72;97889.72;6181409;28;97432;-68
2021/12/09 05:24:43;;;;;;;;;37.00;30.00;;;;;4.29;50.34;97894.28;6182871;28;97562;-66
2021/12/09 05:27:48;;;;;;;;;38.80;31.00;;;;;4.30;50.93;97869.22;6185042;28;97486;-67
2021/12/09 05:34:14;;;;;;;;;39.40;32.00;;;;;4.23;50.48;97839.06;6178552;28;97836;-67
2021/12/09 05:37:20;;;;;;;;;33.00;29.20;;;;;4.18;51.64;97848.72;6185366;28;97034;-67
2021/12/09 05:40:23;;;;;;;;;35.50;30.50;;;;;4.30;50.86;97869.22;6186375;28;97778;-66
2021/12/09 05:43:28;;;;;;;;;36.40;32.00;;;;;4.15;50.54;97881.97;6171053;28;99517;-65
2021/12/09 05:46:35;;;;;;;;;36.60;30.60;;;;;4.04;50.66;97901.25;6176445;28;97719;-66
2021/12/09 05:49:41;;;;;;;;;38.00;30.00;;;;;3.90;50.80;97891.59;6184170;28;97398;-66
2021/12/09 05:52:45;;;;;;;;;30.00;28.00;;;;;3.88;51.04;97891.78;6164791;28;97064;-67
2021/12/09 05:55:48;;;;;;;;;31.20;28.00;;;;;3.97;51.22;97868.41;6181252;28;96795;-66
2021/12/09 05:58:52;;;;;;;;;36.50;30.00;;;;;3.92;51.20;97873.53;6183874;28;96391;-68
2021/12/09 06:01:58;;;;;;;;;34.25;30.00;;;;;4.03;50.85;97869.44;6178108;28;96599;-68
2021/12/09 06:05:01;;;;;;;;;38.00;31.00;;;;;3.99;50.75;97876.22;6165520;28;99678;-68
2021/12/09 06:08:06;;;;;;;;;32.25;29.00;;;;;4.05;50.52;97886.06;6185612;28;97497;-66
2021/12/09 06:11:11;;;;;;;;;33.00;30.00;;;;;3.92;50.60;97881.53;6176434;28;97972;-68
2021/12/09 06:14:15;;;;;;;;;30.40;26.60;;;;;4.05;50.75;97888.72;6178817;28;96988;-69
2021/12/09 06:17:20;;;;;;;;;34.80;29.00;;;;;4.15;50.35;97892.63;6182481;28;96656;-65
2021/12/09 06:20:25;;;;;;;;;31.40;25.80;;;;;4.14;50.04;97883.00;6181055;28;97433;-65
2021/12/09 06:23:28;;;;;;;;;29.00;25.00;;;;;4.21;50.13;97883.78;6167321;28;98391;-66
2021/12/09 06:26:33;;;;;;;;;35.20;29.60;;;;;4.05;50.37;97902.06;6176396;28;96900;-65
2021/12/09 06:29:36;;;;;;;;;31.00;27.00;;;;;4.08;50.11;97921.13;6180893;28;97266;-66
2021/12/09 06:32:41;;;;;;;;;33.00;29.00;;;;;4.22;49.90;97930.78;6169839;28;98308;-65
2021/12/09 06:35:44;;;;;;;;;29.20;25.80;;;;;4.33;49.49;97929.34;6184071;28;97465;-64
2021/12/09 06:38:48;;;;;;;;;33.25;29.00;;;;;4.24;49.51;97927.94;6163574;28;96587;-65
2021/12/09 06:41:51;;;;;;;;;32.60;26.00;;;;;4.08;49.71;97925.66;6172113;28;97277;-64
2021/12/09 06:44:55;;;;;;;;;27.40;27.20;;;;;4.15;50.29;97921.97;6178255;28;96628;-64
2021/12/09 06:48:00;;;;;;;;;33.60;30.00;;;;;4.14;49.68;97935.50;6156158;28;96818;-65
2021/12/09 06:51:06;;;;;;;;;37.60;30.00;;;;;4.13;49.69;97942.69;6160451;28;97156;-66
2021/12/09 06:54:09;;;;;;;;;32.00;28.00;;;;;4.10;49.94;97936.94;6175595;28;96665;-65
2021/12/09 06:57:13;;;;;;;;;35.00;30.20;;;;;4.04;50.11;97937.75;6166264;28;96658;-66
2021/12/09 07:00:19;;;;;;;;;31.00;27.33;;;;;4.09;49.90;97945.97;6153175;28;99848;-66
2021/12/09 07:03:24;;;;;;;;;35.80;30.00;;;;;4.08;50.39;97933.66;6166036;28;98086;-68
2021/12/09 07:06:28;;;;;;;;;34.00;30.00;;;;;4.10;50.24;97920.94;6163077;28;97718;-65
2021/12/09 07:09:31;;;;;;;;;31.20;26.40;;;;;4.12;50.13;97934.88;6188765;28;98048;-67
2021/12/09 07:12:36;;;;;;;;;32.20;25.00;;;;;4.10;50.09;97931.63;6175255;28;97383;-66
2021/12/09 07:15:40;;;;;;;;;34.50;29.75;;;;;4.26;49.58;97931.19;6166945;28;97453;-66
2021/12/09 07:18:45;;;;;;;;;35.50;30.00;;;;;4.32;49.56;97920.53;6190059;28;97749;-65
2021/12/09 07:21:48;;;;;;;;;34.60;29.80;;;;;4.38;49.58;97931.41;6147916;28;97052;-67
2021/12/09 07:24:54;;;;;;;;;32.20;28.80;;;;;4.46;49.16;97941.88;6183721;28;97329;-66
2021/12/09 07:27:58;;;;;;;;;37.60;31.60;;;;;4.49;48.75;97939.63;6187891;28;98659;-66
2021/12/09 07:31:02;;;;;;;;;32.40;30.00;;;;;4.54;49.02;97942.50;6166982;28;98643;-67
2021/12/09 07:34:07;;;;;;;;;31.00;28.67;;;;;4.52;48.83;97935.72;6192845;28;97132;-67
2021/12/09 07:37:10;;;;;;;;;30.00;27.00;;;;;4.52;48.87;97930.38;6171389;28;96826;-67
2021/12/09 07:40:16;;;;;;;;;31.00;28.00;;;;;4.59;48.96;97937.38;6153971;28;96807;-68
2021/12/09 07:43:20;;;;;;;;;29.40;25.20;;;;;4.58;48.94;97917.03;6177777;28;96935;-67
2021/12/09 07:46:23;;;;;;;;;34.80;30.00;;;;;4.55;48.98;97922.78;6187758;28;99649;-66
2021/12/09 07:49:28;;;;;;;;;37.00;29.00;;;;;4.58;49.04;97917.03;6188462;28;97471;-65
2021/12/09 07:52:31;;;;;;;;;33.80;29.00;;;;;4.57;49.09;97928.72;6167918;28;99037;-66
2021/12/09 07:55:35;;;;;;;;;33.00;30.00;;;;;4.67;49.00;97933.66;6195117;28;96636;-67
2021/12/09 07:58:39;;;;;;;;;34.60;28.60;;;;;4.73;48.88;97924.81;6179045;28;97640;-67
2021/12/09 08:01:43;;;;;;;;;34.20;28.00;;;;;4.73;48.55;97916.81;6181490;28;100921;-66
2021/12/09 08:04:48;;;;;;;;;33.00;26.40;;;;;4.72;48.64;97928.50;6198845;28;97267;-66
2021/12/09 08:07:51;;;;;;;;;31.50;28.00;;;;;4.73;48.66;97946.19;6189023;28;97280;-67
2021/12/09 08:10:55;;;;;;;;;32.75;29.00;;;;;4.71;48.76;97949.03;6186929;28;97430;-64
2021/12/09 08:13:59;;;;;;;;;30.00;26.60;;;;;4.69;49.45;97921.72;6174508;28;97922;-65
2021/12/09 08:17:12;;;;;;;;;30.60;28.60;;;;;4.83;48.93;97925.22;6185032;28;97006;-67
2021/12/09 08:20:18;;;;;;;;;32.80;27.20;;;;;4.93;48.96;97927.44;6165163;28;97976;-64
2021/12/09 08:23:21;;;;;;;;;35.67;30.00;;;;;5.02;48.58;97948.38;6171028;28;96985;-64
2021/12/09 08:26:24;;;;;;;;;32.20;29.00;;;;;5.04;48.34;97935.63;6174537;28;96665;-65
2021/12/09 08:29:28;;;;;;;;;39.80;30.40;;;;;5.12;48.37;97934.59;6182434;28;97384;-67
2021/12/09 08:32:31;;;;;;;;;31.00;27.40;;;;;5.07;48.37;97939.75;6173705;28;98349;-67
2021/12/09 08:35:37;;;;;;;;;30.00;27.00;;;;;5.15;48.37;97942.16;6188155;28;97431;-65
2021/12/09 08:38:40;;;;;;;;;33.80;28.80;;;;;5.15;48.28;97942.16;6195799;28;96588;-66
2021/12/09 08:41:45;;;;;;;;;28.00;26.00;;;;;5.05;48.70;97937.25;6180483;28;97403;-67
2021/12/09 08:44:49;;;;;;;;;26.20;23.00;;;;;5.04;49.27;97935.63;6176930;28;97389;-65
2021/12/09 08:47:53;;;;;;;;;33.00;29.33;;;;;5.12;48.72;97922.06;6172563;28;96426;-64
2021/12/09 08:50:58;;;;;;;;;30.60;27.80;;;;;5.26;48.67;97917.47;6170510;28;96499;-66
2021/12/09 08:54:01;;;;;;;;;32.40;27.00;;;;;5.41;48.39;97917.22;6177217;28;97475;-69
2021/12/09 08:57:05;;;;;;;;;30.20;27.20;;;;;5.24;48.37;97925.69;6170537;28;96719;-65
2021/12/09 09:00:12;;;;;;;;;32.60;28.00;;;;;5.10;48.25;97928.63;6192177;28;97983;-66
2021/12/09 09:03:15;;;;;;;;;33.20;30.00;;;;;5.15;48.79;97936.81;6174394;28;96774;-65
2021/12/09 09:06:20;;;;;;;;;30.00;28.25;;;;;5.18;48.54;97931.88;6188797;28;97754;-64
2021/12/09 09:09:26;;;;;;;;;32.20;27.80;;;;;5.08;48.55;97936.84;6179573;28;96335;-66
2021/12/09 09:12:30;;;;;;;;;34.60;29.60;;;;;5.12;48.44;97948.75;6176830;28;96792;-66
2021/12/09 09:15:36;;;;;;;;;34.40;29.00;;;;;5.17;48.78;97934.78;6151365;28;98420;-66
2021/12/09 09:18:39;;;;;;;;;33.00;27.75;;;;;5.26;49.45;97919.31;6194602;28;96391;-67
2021/12/09 09:21:44;;;;;;;;;36.00;29.40;;;;;5.34;48.71;97903.88;6179420;28;96947;-64
2021/12/09 09:24:48;;;;;;;;;34.00;30.00;;;;;5.49;48.44;97888.38;6178404;28;96895;-68
2021/12/09 09:27:51;;;;;;;;;32.40;28.60;;;;;5.53;48.23;97888.75;6169781;28;98647;-65
2021/12/09 09:30:57;;;;;;;;;29.75;26.25;;;;;5.44;48.13;97849.94;6186466;28;96696;-65
2021/12/09 09:34:02;;;;;;;;;34.00;27.00;;;;;5.55;49.26;97846.59;6176579;28;96473;-65
2021/12/09 09:37:08;;;;;;;;;27.25;24.25;;;;;5.42;48.83;97841.34;6182003;28;97427;-66
2021/12/09 09:40:15;;;;;;;;;29.20;25.80;;;;;5.32;48.53;97849.81;6169788;28;97395;-66
2021/12/09 09:43:29;;;;;;;;;35.40;28.40;;;;;5.30;48.89;97867.91;6176382;28;97168;-64
2021/12/09 09:46:36;;;;;;;;;28.40;25.40;;;;;5.15;48.94;97868.19;6186415;28;96715;-65
2021/12/09 09:49:41;;;;;;;;;33.00;28.25;;;;;5.07;48.95;97840.91;6170073;28;97585;-68
2021/12/09 09:52:45;;;;;;;;;32.00;28.80;;;;;5.29;48.93;97836.88;6153538;28;97662;-65
2021/12/09 09:55:49;;;;;;;;;35.00;31.00;;;;;5.41;49.28;97856.56;6170456;28;97830;-63
2021/12/09 09:58:55;;;;;;;;;36.25;30.75;;;;;5.38;48.69;97873.00;6184411;28;97762;-68
2021/12/09 10:01:58;;;;;;;;;33.80;29.00;;;;;5.47;48.98;97853.00;6178892;28;97437;-64
2021/12/09 10:05:04;;;;;;;;;37.50;32.00;;;;;5.61;48.68;97841.22;6183409;28;97300;-66
2021/12/09 10:08:09;;;;;;;;;35.00;29.00;;;;;5.78;48.42;97840.69;6183410;28;96662;-66
2021/12/09 10:11:13;;;;;;;;;35.60;30.60;;;;;5.81;48.36;97840.28;6181304;28;97129;-67
2021/12/09 10:14:19;;;;;;;;;38.00;30.75;;;;;5.92;48.04;97844.94;6177757;28;97283;-64
2021/12/09 10:17:26;;;;;;;;;31.80;28.60;;;;;5.87;47.60;97834.88;6155201;28;96935;-67
2021/12/09 10:20:47;;;;;;;;;34.20;28.40;;;;;5.76;48.28;97808.00;6186229;28;96772;-65
2021/12/09 10:23:59;;;;;;;;;34.40;29.20;;;;;5.64;48.34;97797.19;6175090;28;96720;-66
2021/12/09 10:27:04;;;;;;;;;34.80;29.00;;;;;5.77;48.32;97782.88;6174405;28;98312;-65
2021/12/09 10:30:18;;;;;;;;;34.00;30.00;;;;;6.08;47.89;97820.31;6172134;28;98332;-65
2021/12/09 10:33:23;;;;;;;;;32.75;28.00;;;;;6.19;47.75;97810.78;6175487;28;97319;-65
2021/12/09 10:36:44;;;;;;;;;33.40;29.20;;;;;6.26;47.72;97816.84;6182186;28;96585;-66
2021/12/09 10:39:52;;;;;;;;;34.50;30.00;;;;;6.22;47.67;97813.81;6184631;28;96596;-65
2021/12/09 10:42:57;;;;;;;;;36.20;30.60;;;;;6.20;47.67;97805.19;6161510;28;97862;-68
2021/12/09 10:46:01;;;;;;;;;35.00;30.00;;;;;6.42;47.42;97819.78;6191445;28;97808;-66
2021/12/09 10:49:12;;;;;;;;;34.00;28.60;;;;;6.42;47.44;97821.66;6190053;28;96739;-66
2021/12/09 10:52:36;;;;;;;;;33.80;30.00;;;;;6.31;47.30;97800.97;6172230;28;97032;-67
2021/12/09 10:55:42;;;;;;;;;38.40;31.40;;;;;6.34;47.71;97793.31;6189675;28;97340;-67
2021/12/09 10:58:47;;;;;;;;;30.80;27.20;;;;;6.29;47.35;97766.41;6171371;28;97309;-64
2021/12/09 11:02:05;;;;;;;;;32.00;28.00;;;;;6.53;47.34;97786.94;6185234;28;96707;-66
2021/12/09 11:05:11;;;;;;;;;34.00;29.60;;;;;6.38;46.95;97754.38;6154535;28;97681;-67
2021/12/09 11:08:20;;;;;;;;;38.40;31.40;;;;;6.55;47.20;97781.34;6175160;28;98620;-69
2021/12/09 11:11:29;;;;;;;;;42.00;32.00;;;;;6.57;47.31;97784.63;6179270;28;97422;-67
2021/12/09 11:14:33;;;;;;;;;31.75;28.00;;;;;6.57;47.46;97779.28;6178530;28;99524;-67
2021/12/09 11:17:41;;;;;;;;;36.00;30.00;;;;;6.62;47.41;97792.81;6177003;28;97366;-65
2021/12/09 11:20:45;;;;;;;;;33.00;30.00;;;;;6.70;47.36;97775.63;6185490;28;96576;-68
2021/12/09 11:23:54;;;;;;;;;33.00;28.00;;;;;6.66;47.35;97764.53;6174385;28;97140;-65
2021/12/09 11:27:02;;;;;;;;;37.00;30.75;;;;;6.74;47.35;97764.25;6171614;28;98449;-67
2021/12/09 11:30:12;;;;;;;;;35.50;31.25;;;;;6.81;47.39;97754.28;6190244;28;97468;-69
2021/12/09 11:33:32;;;;;;;;;35.60;30.00;;;;;6.81;47.50;97764.16;6174024;28;97325;-67
2021/12/09 11:37:04;;;;;;;;;32.40;29.00;;;;;6.60;47.39;97775.34;6179783;28;96618;-65
2021/12/09 11:40:30;;;;;;;;;37.00;32.00;;;;;6.43;47.67;97756.38;6175872;28;97201;-65
2021/12/09 11:43:34;;;;;;;;;34.00;30.00;;;;;6.63;47.68;97764.19;6175978;28;97953;-68
2021/12/09 11:46:40;;;;;;;;;34.20;30.00;;;;;6.48;47.83;97729.75;6186537;28;98464;-65
2021/12/09 11:49:44;;;;;;;;;36.40;31.20;;;;;6.56;47.88;97750.84;6149455;28;96827;-68
2021/12/09 11:52:51;;;;;;;;;32.60;29.00;;;;;6.71;47.79;97762.00;6177381;28;99774;-68
2021/12/09 11:56:03;;;;;;;;;33.40;29.00;;;;;6.72;47.74;97760.16;6187905;28;97454;-66
2021/12/09 12:13:37;;;;;;;;;32.50;28.50;;;;;6.77;47.95;97733.50;6110257;28;97714;-69
2021/12/09 12:17:04;;;;;;;;;35.25;27.50;;;;;6.82;48.11;97739.84;6138740;28;97621;-65
2021/12/09 12:20:26;;;;;;;;;30.67;27.33;;;;;6.80;48.08;97733.06;6103443;28;98640;-66
2021/12/09 12:23:42;;;;;;;;;33.00;29.40;;;;;6.75;48.23;97731.06;6104990;28;96916;-65
2021/12/09 12:26:59;;;;;;;;;36.60;29.60;;;;;6.75;48.11;97733.72;6133200;28;96791;-66
2021/12/09 12:30:26;;;;;;;;;35.00;29.00;;;;;6.61;48.41;97713.53;6119475;28;97077;-67
2021/12/09 12:34:10;;;;;;;;;32.25;29.00;;;;;6.84;48.29;97750.34;6103570;28;97030;-64
2021/12/09 12:37:20;;;;;;;;;33.00;30.00;;;;;6.87;48.34;97750.69;6134862;28;96593;-67
2021/12/09 12:40:27;;;;;;;;;33.40;30.00;;;;;6.95;48.17;97755.72;6155942;28;96618;-66
2021/12/09 12:43:37;;;;;;;;;31.00;28.00;;;;;7.03;48.18;97735.88;6178448;28;99715;-67
2021/12/09 12:46:51;;;;;;;;;32.60;30.00;;;;;7.14;47.97;97742.28;6189904;28;97159;-66
2021/12/09 12:50:10;;;;;;;;;34.00;28.60;;;;;7.23;47.55;97741.72;6156088;28;98384;-67
2021/12/09 12:53:34;;;;;;;;;30.00;27.80;;;;;7.29;47.27;97742.69;6173155;28;97389;-65
2021/12/09 12:56:42;;;;;;;;;32.00;28.00;;;;;7.16;47.21;97708.88;6187988;28;97325;-67
2021/12/09 13:00:03;;;;;;;;;24.80;21.80;;;;;7.38;46.88;97738.63;6188496;28;96952;-67
2021/12/09 13:03:16;;;;;;;;;32.40;29.80;;;;;7.32;47.19;97735.03;6172958;28;97467;-66
2021/12/09 13:06:43;;;;;;;;;35.60;30.00;;;;;7.38;46.92;97722.53;6163436;28;98220;-64
2021/12/09 13:10:00;;;;;;;;;29.00;27.00;;;;;7.39;46.97;97729.53;6188944;28;97375;-68
2021/12/09 13:13:16;;;;;;;;;33.00;30.00;;;;;7.35;46.62;97714.97;6174359;28;96799;-66
2021/12/09 13:16:33;;;;;;;;;33.50;27.75;;;;;7.30;46.75;97712.97;6187699;28;96834;-64
2021/12/09 13:19:46;;;;;;;;;31.60;29.00;;;;;7.21;46.81;97705.50;6180692;28;97003;-65
2021/12/09 13:23:20;;;;;;;;;33.20;28.60;;;;;7.22;46.87;97709.81;6169327;28;98711;-68
2021/12/09 13:26:28;;;;;;;;;31.60;29.00;;;;;7.30;46.96;97709.47;6182356;28;96981;-67
2021/12/09 13:29:40;;;;;;;;;32.50;29.00;;;;;7.19;46.71;97731.69;6164011;28;96655;-66
2021/12/09 13:40:20;;;;;;;;;33.00;27.00;;;;;7.15;46.95;97731.34;6142503;28;97927;-69
2021/12/09 13:47:10;;;;;;;;;35.25;30.00;;;;;6.90;47.11;97744.06;6122083;28;97007;-67
2021/12/09 13:57:01;;;;;;;;;36.00;29.60;;;;;7.09;47.02;97737.59;6141467;28;97291;-67
2021/12/09 14:00:12;;;;;;;;;34.40;30.00;;;;;7.08;47.48;97737.84;6156190;28;97351;-70
2021/12/09 14:03:19;;;;;;;;;35.60;29.40;;;;;7.09;47.52;97742.16;6148217;28;96815;-68
2021/12/09 14:06:22;;;;;;;;;31.00;27.00;;;;;7.17;47.31;97737.31;6155391;28;98568;-67
2021/12/09 14:09:27;;;;;;;;;35.50;30.00;;;;;7.19;47.15;97737.06;6157742;28;97394;-68
2021/12/09 14:12:39;;;;;;;;;36.00;29.60;;;;;6.94;47.16;97713.91;6121398;28;97266;-63
2021/12/09 14:15:58;;;;;;;;;33.60;28.60;;;;;6.97;47.44;97720.69;6181861;28;98410;-66
2021/12/09 14:22:25;;;;;;;;;36.00;30.40;;;;;6.77;47.70;97707.56;6176799;28;98092;-68
2021/12/09 14:25:33;;;;;;;;;39.60;32.60;;;;;6.72;47.90;97734.19;6171644;28;98943;-64
2021/12/09 14:28:38;;;;;;;;;38.00;32.00;;;;;6.67;48.04;97739.41;6168032;28;96751;-67
2021/12/09 14:31:44;;;;;;;;;34.80;30.00;;;;;6.67;48.06;97736.72;6177078;28;97424;-68
2021/12/09 14:34:51;;;;;;;;;42.80;33.40;;;;;6.70;48.09;97728.22;6187154;28;96901;-69
2021/12/09 14:38:15;;;;;;;;;36.00;30.00;;;;;6.71;48.09;97711.13;6191532;28;97423;-69
2021/12/09 14:41:25;;;;;;;;;41.40;33.00;;;;;6.73;48.08;97717.09;6175464;28;97185;-67
2021/12/09 14:44:30;;;;;;;;;37.00;32.00;;;;;6.75;48.19;97723.03;6181964;28;96579;-68
2021/12/09 14:47:33;;;;;;;;;33.60;30.00;;;;;6.64;47.99;97721.13;6190950;28;96959;-67
2021/12/09 14:50:41;;;;;;;;;31.60;30.00;;;;;6.68;48.21;97721.47;6148341;28;98109;-66
2021/12/09 14:54:07;;;;;;;;;35.75;30.75;;;;;6.71;48.12;97711.13;6164994;28;98102;-65
2021/12/09 14:57:11;;;;;;;;;36.60;32.00;;;;;6.61;48.29;97734.94;6176205;28;96541;-68
2021/12/09 15:00:28;;;;;;;;;42.00;32.00;;;;;6.78;48.09;97703.00;6188762;28;96401;-65
2021/12/09 15:03:36;;;;;;;;;38.50;32.00;;;;;6.58;48.00;97713.16;6146637;28;98671;-67
2021/12/09 15:07:02;;;;;;;;;38.60;31.80;;;;;6.70;48.49;97732.78;6168108;28;100013;-67
2021/12/09 15:10:08;;;;;;;;;35.50;30.00;;;;;6.72;48.80;97723.47;6162361;28;96881;-65
2021/12/09 15:13:13;;;;;;;;;37.80;30.80;;;;;6.54;48.00;97696.72;6178678;28;98159;-66
2021/12/09 15:16:20;;;;;;;;;38.75;30.75;;;;;6.69;48.28;97715.09;6190403;28;99760;-66
2021/12/09 15:19:24;;;;;;;;;39.00;32.00;;;;;6.59;47.96;97725.50;6157511;28;97686;-66
2021/12/09 15:22:40;;;;;;;;;41.00;31.50;;;;;6.59;47.99;97733.53;6130044;28;96924;-66
2021/12/09 15:25:48;;;;;;;;;38.60;32.00;;;;;6.56;48.07;97723.25;6186018;28;97325;-65
2021/12/09 15:29:09;;;;;;;;;38.20;32.40;;;;;6.49;48.34;97718.00;6186061;28;96662;-65
2021/12/09 15:32:13;;;;;;;;;41.40;32.00;;;;;6.28;48.42;97662.25;6174975;28;99527;-65
2021/12/09 15:35:17;;;;;;;;;39.60;32.00;;;;;6.45;48.28;97698.09;6187935;28;97405;-66
2021/12/09 15:38:22;;;;;;;;;39.50;32.00;;;;;6.48;48.36;97706.47;6187463;28;97575;-69
2021/12/09 15:41:27;;;;;;;;;37.00;33.00;;;;;6.32;48.28;97682.16;6178472;28;97115;-67
2021/12/09 15:44:36;;;;;;;;;39.60;32.00;;;;;6.45;48.21;97698.88;6176679;28;97499;-69
2021/12/09 15:47:41;;;;;;;;;41.00;32.40;;;;;6.37;48.22;97690.34;6186917;28;97986;-68
2021/12/09 15:50:44;;;;;;;;;39.50;31.75;;;;;6.13;48.75;97662.63;6183716;28;97110;-68
2021/12/09 15:53:51;;;;;;;;;43.40;34.60;;;;;6.23;48.70;97672.81;6159462;28;98316;-68
2021/12/09 15:57:01;;;;;;;;;45.00;35.00;;;;;6.22;48.92;97671.16;6186214;28;97874;-68
2021/12/09 16:00:05;;;;;;;;;40.75;33.00;;;;;6.27;48.87;97671.31;6183926;28;97018;-64
2021/12/09 16:03:11;;;;;;;;;44.00;33.40;;;;;6.29;48.55;97688.78;6177324;28;97497;-67
2021/12/09 16:06:14;;;;;;;;;42.40;33.00;;;;;6.27;48.63;97674.81;6185634;28;97464;-66
2021/12/09 16:09:19;;;;;;;;;41.40;33.40;;;;;6.17;48.60;97669.16;6191546;28;97157;-64
2021/12/09 16:12:26;;;;;;;;;44.50;34.00;;;;;6.18;48.80;97683.34;6172032;28;96787;-67
2021/12/09 16:15:40;;;;;;;;;46.25;36.00;;;;;6.14;48.80;97685.66;6189099;28;96774;-64
2021/12/09 16:18:45;;;;;;;;;40.80;34.00;;;;;6.00;48.85;97673.47;6185569;28;97167;-65
2021/12/09 16:22:16;;;;;;;;;45.00;36.00;;;;;5.98;48.85;97689.75;6161370;28;96858;-64
2021/12/09 16:25:17;;;;;;;;;45.00;36.00;;;;;5.86;49.61;97694.16;6183711;28;96664;-63
2021/12/09 16:28:25;;;;;;;;;45.80;33.40;;;;;5.91;49.38;97693.53;6177861;28;96755;-63
2021/12/09 16:31:28;;;;;;;;;40.60;33.00;;;;;5.95;49.06;97710.78;6177505;28;96707;-65
2021/12/09 16:34:33;;;;;;;;;45.00;35.00;;;;;5.93;49.13;97702.13;6162192;28;99505;-64
2021/12/09 16:37:38;;;;;;;;;42.25;34.00;;;;;5.97;49.25;97708.66;6185752;28;97539;-64
2021/12/09 16:40:45;;;;;;;;;44.00;35.00;;;;;6.06;49.21;97712.69;6168055;28;98359;-64
2021/12/09 16:43:48;;;;;;;;;45.20;34.80;;;;;5.97;49.14;97706.81;6175353;28;96632;-65
2021/12/09 16:46:52;;;;;;;;;43.20;33.00;;;;;6.09;48.97;97720.28;6186979;28;97328;-65
2021/12/09 16:49:57;;;;;;;;;47.00;36.00;;;;;6.03;48.81;97724.66;6184489;28;97458;-65
2021/12/09 16:53:02;;;;;;;;;37.80;32.00;;;;;5.99;49.21;97739.53;6157136;28;98744;-65
2021/12/09 16:56:09;;;;;;;;;44.40;33.40;;;;;6.00;48.55;97751.06;6186804;28;96766;-65
2021/12/09 16:59:24;;;;;;;;;42.00;33.00;;;;;6.12;48.71;97759.16;6187263;28;96594;-65
2021/12/09 17:02:29;;;;;;;;;46.75;36.00;;;;;6.15;48.71;97756.88;6140068;28;99459;-63
2021/12/09 17:05:34;;;;;;;;;47.00;36.00;;;;;6.18;48.68;97740.38;6142691;28;97847;-63
2021/12/09 17:08:37;;;;;;;;;44.50;34.75;;;;;6.25;48.64;97737.63;6184290;28;96765;-65
2021/12/09 17:11:43;;;;;;;;;42.00;35.00;;;;;6.24;48.51;97734.13;6180305;28;97496;-64
2021/12/09 17:14:46;;;;;;;;;42.00;33.75;;;;;6.15;48.20;97731.97;6178228;28;97767;-63
2021/12/09 17:17:50;;;;;;;;;47.00;34.80;;;;;6.29;48.42;97731.63;6177929;28;97103;-64
2021/12/09 17:20:55;;;;;;;;;43.75;34.50;;;;;6.28;48.39;97727.28;6184885;28;96767;-65
2021/12/09 17:23:59;;;;;;;;;45.00;33.60;;;;;6.37;48.18;97719.78;6177003;28;97581;-64
2021/12/09 17:27:03;;;;;;;;;44.00;35.00;;;;;6.39;47.87;97712.34;6153541;28;96806;-67
2021/12/09 17:30:10;;;;;;;;;46.50;37.00;;;;;6.11;48.18;97701.34;6175398;28;97461;-63
2021/12/09 17:33:21;;;;;;;;;47.50;36.00;;;;;6.09;48.24;97706.91;6144822;28;97725;-65
2021/12/09 17:36:26;;;;;;;;;46.00;35.00;;;;;6.05;48.30;97711.91;6188638;28;96541;-64
2021/12/09 17:39:29;;;;;;;;;47.00;35.20;;;;;5.94;48.72;97714.47;6169099;28;100122;-65
2021/12/09 17:42:33;;;;;;;;;47.50;34.50;;;;;5.98;49.40;97696.94;6162459;28;98179;-66
2021/12/09 17:45:36;;;;;;;;;47.00;36.00;;;;;5.99;48.81;97701.25;6186362;28;96532;-64
2021/12/09 17:48:39;;;;;;;;;47.00;35.33;;;;;5.89;49.08;97698.28;6187320;28;97503;-65
2021/12/09 17:51:47;;;;;;;;;43.20;33.60;;;;;5.79;49.14;97684.56;6175260;28;98278;-64
2021/12/09 17:54:51;;;;;;;;;47.00;35.00;;;;;5.95;49.05;97700.88;6163681;28;97066;-64
2021/12/09 17:57:54;;;;;;;;;42.00;34.60;;;;;6.01;48.70;97699.19;6172612;28;97068;-64
2021/12/09 18:00:59;;;;;;;;;41.60;33.00;;;;;5.94;48.98;97701.94;6184919;28;96507;-63
2021/12/09 18:04:02;;;;;;;;;46.75;35.75;;;;;5.89;48.89;97684.91;6171793;28;96666;-62
2021/12/09 18:07:10;;;;;;;;;41.80;33.80;;;;;5.85;49.06;97695.19;6188238;28;97401;-65
2021/12/09 18:10:14;;;;;;;;;45.00;35.00;;;;;5.77;49.22;97691.97;6171284;28;97947;-64
2021/12/09 18:13:22;;;;;;;;;46.00;35.20;;;;;5.84;49.21;97700.75;6171647;28;97766;-63
2021/12/09 18:16:31;;;;;;;;;44.20;33.40;;;;;5.69;49.26;97695.75;6175699;28;97085;-64
2021/12/09 18:19:34;;;;;;;;;46.00;35.75;;;;;5.78;49.61;97677.56;6178812;28;97353;-64
2021/12/09 18:22:39;;;;;;;;;44.00;35.00;;;;;5.77;49.40;97666.03;6171201;28;97142;-62
2021/12/09 18:25:47;;;;;;;;;46.75;36.00;;;;;5.89;49.18;97667.00;6175773;28;97204;-66
2021/12/09 18:28:54;;;;;;;;;48.00;37.00;;;;;5.96;49.04;97670.41;6182544;28;96468;-66
2021/12/09 18:32:01;;;;;;;;;45.00;35.00;;;;;5.95;48.81;97665.28;6176298;28;97918;-65
2021/12/09 18:35:08;;;;;;;;;45.40;36.00;;;;;5.90;48.97;97659.78;6173062;28;98207;-65
2021/12/09 18:38:13;;;;;;;;;49.00;37.00;;;;;5.84;49.20;97653.44;6185614;28;98017;-63
2021/12/09 18:41:16;;;;;;;;;45.00;36.00;;;;;5.83;49.16;97667.84;6176146;28;97462;-65
2021/12/09 18:44:20;;;;;;;;;45.20;36.00;;;;;5.83;49.17;97657.13;6178139;28;96952;-64
2021/12/09 18:47:24;;;;;;;;;46.20;35.40;;;;;5.90;49.09;97657.13;6169975;28;97887;-63
2021/12/09 18:50:29;;;;;;;;;50.20;37.20;;;;;5.86;49.14;97664.75;6185882;28;97367;-64